Time;durP1;ratioP1;P1;durP2;ratioP2;P2;SDS_P1;SDS_P2;PMS_P1;PMS_P2;Temp;Humidity;BMP_temperature;BMP_pressure;BME280_temperature;BME280_humidity;BME280_pressure;Samples;Min_cycle;Max_cycle;Signal;HPM_P1;HPM_P2
2021/05/09 00:00:46;;;;;;;;;;;;;;;19.81;32.98;99409.81;4416739;32;19954;-52
2021/05/09 00:03:11;;;;;;;;;;;;;;;19.78;32.86;99404.53;4417414;32;19950;-53
2021/05/09 00:05:37;;;;;;;;;;;;;;;19.87;32.80;99404.53;4431813;32;20363;-52
2021/05/09 00:08:03;;;;;;;;;;;;;;;19.83;32.83;99394.88;4432110;32;19953;-50
2021/05/09 00:10:29;;;;;;;;;;;;;;;19.78;32.89;99393.97;4418587;32;19950;-49
2021/05/09 00:12:55;;;;;;;;;;;;;;;19.78;32.93;99391.34;4423759;32;19970;-53
2021/05/09 00:15:21;;;;;;;;;;;;;;;19.89;32.62;99396.63;4428586;32;19958;-54
2021/05/09 00:17:47;;;;;;;;;;;;;;;19.91;32.55;99395.72;4424891;32;19964;-51
2021/05/09 00:20:13;;;;;;;;;;;;;;;19.81;32.62;99393.97;4423150;32;19952;-49
2021/05/09 00:22:39;;;;;;;;;;;;;;;19.85;32.50;99390.47;4433506;32;20311;-48
2021/05/09 00:25:05;;;;;;;;;;;;;;;19.79;32.59;99378.13;4425276;32;19994;-52
2021/05/09 00:27:30;;;;;;;;;;;;;;;19.82;32.60;99389.56;4426058;32;19942;-54
2021/05/09 00:29:56;;;;;;;;;;;;;;;19.77;32.60;99381.66;4425028;32;19960;-51
2021/05/09 00:32:22;;;;;;;;;;;;;;;19.72;32.65;99379.00;4424193;32;20067;-50
2021/05/09 00:34:48;;;;;;;;;;;;;;;19.80;32.50;99360.50;4425341;32;19950;-51
2021/05/09 00:37:14;;;;;;;;;;;;;;;19.74;32.47;99371.97;4424002;32;19953;-48
2021/05/09 00:39:40;;;;;;;;;;;;;;;19.75;32.51;99372.84;4424812;32;19978;-54
2021/05/09 00:42:06;;;;;;;;;;;;;;;19.76;32.43;99372.88;4423627;32;19949;-52
2021/05/09 00:44:32;;;;;;;;;;;;;;;19.70;32.55;99366.72;4424043;32;19995;-50
2021/05/09 00:46:58;;;;;;;;;;;;;;;19.74;32.43;99365.81;4425405;32;19962;-47
2021/05/09 00:49:24;;;;;;;;;;;;;;;19.75;32.41;99357.00;4425867;32;20311;-51
2021/05/09 00:51:49;;;;;;;;;;;;;;;19.73;32.32;99358.78;4424212;32;19977;-49
2021/05/09 00:54:15;;;;;;;;;;;;;;;19.77;32.35;99355.22;4425201;32;20365;-50
2021/05/09 00:56:41;;;;;;;;;;;;;;;19.88;32.02;99353.47;4424275;32;19938;-54
2021/05/09 00:59:07;;;;;;;;;;;;;;;19.87;32.15;99346.41;4424899;32;19956;-51
2021/05/09 01:01:35;;;;;;;;;;;;;;;19.79;32.27;99345.53;4427076;32;19990;-48
2021/05/09 01:04:01;;;;;;;;;;;;;;;19.80;32.04;99345.56;4428831;32;20005;-49
2021/05/09 01:06:27;;;;;;;;;;;;;;;19.80;32.03;99344.66;4426705;32;19980;-49
2021/05/09 01:08:53;;;;;;;;;;;;;;;19.85;31.99;99342.00;4426749;32;20232;-47
2021/05/09 01:11:19;;;;;;;;;;;;;;;19.87;31.96;99335.84;4426671;32;19962;-47
2021/05/09 01:13:45;;;;;;;;;;;;;;;19.85;31.96;99336.72;4426658;32;20303;-51
2021/05/09 01:16:11;;;;;;;;;;;;;;;19.83;31.93;99335.84;4426888;32;19990;-52
2021/05/09 01:18:37;;;;;;;;;;;;;;;19.77;32.04;99337.63;4428499;32;19946;-46
2021/05/09 01:21:03;;;;;;;;;;;;;;;19.80;32.02;99334.97;4427627;32;19959;-51
2021/05/09 01:23:29;;;;;;;;;;;;;;;19.80;31.87;99344.66;4414190;32;19946;-50
2021/05/09 01:25:55;;;;;;;;;;;;;;;19.79;31.96;99332.34;4427338;32;19950;-50
2021/05/09 01:28:21;;;;;;;;;;;;;;;19.90;31.67;99330.56;4427450;32;20373;-50
2021/05/09 01:30:47;;;;;;;;;;;;;;;19.90;31.74;99329.69;4427120;32;19966;-51
2021/05/09 01:33:13;;;;;;;;;;;;;;;19.91;31.55;99327.03;4427052;32;20010;-49
2021/05/09 01:35:39;;;;;;;;;;;;;;;19.98;31.20;99327.06;4412642;32;19953;-51
2021/05/09 01:38:04;;;;;;;;;;;;;;;20.04;31.19;99327.03;4434831;32;19954;-52
2021/05/09 01:40:31;;;;;;;;;;;;;;;20.07;31.20;99321.75;4431675;32;20352;-50
2021/05/09 01:42:57;;;;;;;;;;;;;;;20.07;31.37;99322.63;4420016;32;19950;-50
2021/05/09 01:45:23;;;;;;;;;;;;;;;20.05;30.91;99321.75;4422014;32;20067;-52
2021/05/09 01:47:48;;;;;;;;;;;;;;;20.09;30.96;99325.25;4435479;32;19988;-49
2021/05/09 01:50:15;;;;;;;;;;;;;;;20.12;30.68;99319.06;4434200;32;19950;-52
2021/05/09 01:52:40;;;;;;;;;;;;;;;20.07;30.85;99321.75;4424614;32;19977;-50
2021/05/09 01:55:06;;;;;;;;;;;;;;;20.06;31.13;99314.69;4434048;32;19949;-53
2021/05/09 01:57:32;;;;;;;;;;;;;;;20.06;30.50;99314.69;4434499;32;19958;-47
2021/05/09 01:59:58;;;;;;;;;;;;;;;20.06;30.70;99322.59;4434198;32;19966;-51
2021/05/09 02:02:24;;;;;;;;;;;;;;;20.00;30.72;99310.31;4433655;32;19950;-51
2021/05/09 02:04:50;;;;;;;;;;;;;;;20.03;30.53;99315.59;4434561;32;19996;-52
2021/05/09 02:07:16;;;;;;;;;;;;;;;20.12;30.57;99316.41;4421760;32;19997;-49
2021/05/09 02:09:42;;;;;;;;;;;;;;;20.07;30.99;99312.03;4418174;32;20010;-51
2021/05/09 02:12:08;;;;;;;;;;;;;;;20.02;30.85;99310.31;4428981;32;20375;-50
2021/05/09 02:14:34;;;;;;;;;;;;;;;20.03;30.81;99309.41;4433636;32;19964;-49
2021/05/09 02:16:59;;;;;;;;;;;;;;;20.01;31.09;99309.44;4425160;32;19952;-52
2021/05/09 02:19:25;;;;;;;;;;;;;;;20.00;30.99;99301.50;4418055;32;20331;-52
2021/05/09 02:21:51;;;;;;;;;;;;;;;19.96;30.69;99307.69;4426724;32;19953;-49
2021/05/09 02:24:17;;;;;;;;;;;;;;;20.00;31.00;99310.31;4433621;32;19968;-48
2021/05/09 02:26:43;;;;;;;;;;;;;;;20.02;30.63;99307.66;4428493;32;19957;-49
2021/05/09 02:29:09;;;;;;;;;;;;;;;20.00;30.47;99305.03;4417376;32;20271;-49
2021/05/09 02:31:35;;;;;;;;;;;;;;;19.96;31.05;99303.28;4423776;32;19954;-49
2021/05/09 02:34:01;;;;;;;;;;;;;;;19.93;30.97;99309.44;4433988;32;20001;-53
2021/05/09 02:36:26;;;;;;;;;;;;;;;20.00;30.74;99309.44;4430598;32;19950;-49
2021/05/09 02:38:52;;;;;;;;;;;;;;;19.98;30.38;99306.78;4418010;32;20927;-50
2021/05/09 02:41:18;;;;;;;;;;;;;;;19.95;30.72;99306.78;4420094;32;19992;-49
2021/05/09 02:43:44;;;;;;;;;;;;;;;19.96;30.36;99307.69;4433715;32;19942;-51
2021/05/09 02:46:11;;;;;;;;;;;;;;;19.98;30.51;99301.50;4432534;32;19989;-52
2021/05/09 02:48:37;;;;;;;;;;;;;;;19.96;30.77;99302.41;4418668;32;19954;-50
2021/05/09 02:51:03;;;;;;;;;;;;;;;19.95;30.43;99301.50;4418462;32;20000;-50
2021/05/09 02:53:29;;;;;;;;;;;;;;;19.94;30.46;99300.66;4433593;32;19956;-49
2021/05/09 02:55:55;;;;;;;;;;;;;;;19.90;30.72;99295.34;4434489;32;20259;-50
2021/05/09 02:58:21;;;;;;;;;;;;;;;19.97;31.12;99293.59;4433869;32;19985;-50
2021/05/09 03:00:47;;;;;;;;;;;;;;;19.90;30.66;99304.12;4433773;32;19984;-50
2021/05/09 03:03:13;;;;;;;;;;;;;;;19.93;30.59;99295.34;4422421;32;19987;-51
2021/05/09 03:05:38;;;;;;;;;;;;;;;19.90;30.75;99298.84;4419818;32;19938;-47
2021/05/09 03:08:04;;;;;;;;;;;;;;;19.88;30.67;99297.97;4429397;32;19950;-50
2021/05/09 03:10:30;;;;;;;;;;;;;;;19.88;30.24;99294.44;4433647;32;19952;-49
2021/05/09 03:12:56;;;;;;;;;;;;;;;19.91;30.36;99295.31;4424837;32;19954;-52
2021/05/09 03:15:22;;;;;;;;;;;;;;;19.87;30.61;99297.97;4418366;32;20144;-51
2021/05/09 03:17:48;;;;;;;;;;;;;;;19.86;30.82;99289.19;4426738;32;19953;-52
2021/05/09 03:20:14;;;;;;;;;;;;;;;19.87;30.31;99287.41;4433453;32;20352;-48
2021/05/09 03:22:40;;;;;;;;;;;;;;;19.84;30.40;99293.59;4427422;32;19978;-49
2021/05/09 03:25:06;;;;;;;;;;;;;;;19.87;30.81;99290.03;4431419;32;19942;-49
2021/05/09 03:27:32;;;;;;;;;;;;;;;19.83;31.49;99290.94;4434191;32;19958;-52
2021/05/09 03:29:58;;;;;;;;;;;;;;;19.82;31.27;99289.19;4433359;32;20363;-49
2021/05/09 03:32:23;;;;;;;;;;;;;;;19.82;30.35;99283.91;4419313;32;19982;-52
2021/05/09 03:34:49;;;;;;;;;;;;;;;19.80;30.67;99281.25;4433757;32;19965;-48
2021/05/09 03:37:15;;;;;;;;;;;;;;;19.84;31.21;99282.13;4431796;32;20604;-51
2021/05/09 03:39:41;;;;;;;;;;;;;;;19.80;30.32;99281.25;4418198;32;19938;-53
2021/05/09 03:42:07;;;;;;;;;;;;;;;19.78;31.37;99288.31;4418858;32;19938;-50
2021/05/09 03:44:34;;;;;;;;;;;;;;;19.77;31.17;99287.44;4433312;32;20305;-53
2021/05/09 03:46:59;;;;;;;;;;;;;;;19.75;30.90;99283.91;4433956;32;19957;-51
2021/05/09 03:49:25;;;;;;;;;;;;;;;19.76;31.71;99290.97;4418490;32;19958;-51
2021/05/09 03:51:51;;;;;;;;;;;;;;;19.75;30.77;99288.31;4418784;32;19952;-51
2021/05/09 03:54:17;;;;;;;;;;;;;;;19.74;30.89;99297.13;4431194;32;19961;-51
2021/05/09 03:56:43;;;;;;;;;;;;;;;19.73;31.08;99290.97;4434414;32;19953;-51
2021/05/09 03:59:09;;;;;;;;;;;;;;;19.77;31.08;99297.13;4419694;32;19937;-52
2021/05/09 04:01:35;;;;;;;;;;;;;;;19.74;30.93;99291.84;4418579;32;19958;-52
2021/05/09 04:04:01;;;;;;;;;;;;;;;19.75;30.50;99289.19;4429614;32;20329;-52
2021/05/09 04:06:27;;;;;;;;;;;;;;;19.76;31.33;99295.38;4433658;32;19969;-49
2021/05/09 04:08:52;;;;;;;;;;;;;;;19.71;30.67;99292.72;4423823;32;20641;-52
2021/05/09 04:11:18;;;;;;;;;;;;;;;19.70;31.62;99295.41;4417919;32;20384;-53
2021/05/09 04:13:44;;;;;;;;;;;;;;;19.72;31.08;99288.34;4425804;32;19952;-49
2021/05/09 04:16:10;;;;;;;;;;;;;;;19.73;30.59;99287.47;4433158;32;19976;-52
2021/05/09 04:18:36;;;;;;;;;;;;;;;19.72;31.71;99277.78;4426702;32;20545;-49
2021/05/09 04:21:02;;;;;;;;;;;;;;;19.72;30.72;99288.34;4418581;32;19950;-49
2021/05/09 04:23:28;;;;;;;;;;;;;;;19.71;31.66;99287.44;4422724;32;20442;-48
2021/05/09 04:25:54;;;;;;;;;;;;;;;19.69;31.64;99289.22;4433563;32;20000;-50
2021/05/09 04:28:20;;;;;;;;;;;;;;;19.73;31.73;99284.81;4432375;32;19973;-51
2021/05/09 04:30:46;;;;;;;;;;;;;;;19.68;31.35;99290.09;4432635;32;19950;-52
2021/05/09 04:33:12;;;;;;;;;;;;;;;19.71;31.49;99289.22;4433045;32;19949;-53
2021/05/09 04:35:37;;;;;;;;;;;;;;;19.72;31.16;99272.50;4432961;32;19941;-54
2021/05/09 04:38:03;;;;;;;;;;;;;;;19.70;31.26;99280.41;4431634;32;20368;-51
2021/05/09 04:40:29;;;;;;;;;;;;;;;19.69;31.29;99289.22;4417422;32;19966;-53
2021/05/09 04:42:55;;;;;;;;;;;;;;;19.72;31.45;99288.34;4417607;32;19966;-52
2021/05/09 04:45:21;;;;;;;;;;;;;;;19.70;31.10;99290.13;4432293;32;19960;-52
2021/05/09 04:47:47;;;;;;;;;;;;;;;19.72;31.19;99289.19;4433206;32;19954;-50
2021/05/09 04:50:13;;;;;;;;;;;;;;;19.75;30.78;99283.91;4419282;32;20038;-52
2021/05/09 04:52:39;;;;;;;;;;;;;;;19.73;31.12;99284.81;4417542;32;20513;-49
2021/05/09 04:55:05;;;;;;;;;;;;;;;19.71;31.69;99283.94;4429821;32;19961;-50
2021/05/09 04:57:31;;;;;;;;;;;;;;;19.74;31.59;99298.00;4433107;32;20282;-49
2021/05/09 04:59:56;;;;;;;;;;;;;;;19.75;31.40;99299.75;4432263;32;19938;-49
2021/05/09 05:02:22;;;;;;;;;;;;;;;19.76;31.78;99295.38;4431628;32;20418;-49
2021/05/09 05:04:48;;;;;;;;;;;;;;;19.77;31.26;99294.47;4433485;32;19995;-51
2021/05/09 05:07:14;;;;;;;;;;;;;;;19.76;31.54;99296.25;4418275;32;19949;-50
2021/05/09 05:09:41;;;;;;;;;;;;;;;19.77;31.64;99302.41;4424848;32;20323;-52
2021/05/09 05:12:06;;;;;;;;;;;;;;;19.76;31.93;99287.44;4417182;32;19958;-48
2021/05/09 05:14:32;;;;;;;;;;;;;;;19.74;31.39;99287.44;4416885;32;19958;-46
2021/05/09 05:16:58;;;;;;;;;;;;;;;19.77;31.45;99291.84;4417819;32;19950;-48
2021/05/09 05:19:24;;;;;;;;;;;;;;;19.78;31.65;99288.31;4422106;32;19950;-47
2021/05/09 05:21:50;;;;;;;;;;;;;;;19.78;31.58;99294.50;4432037;32;20339;-51
2021/05/09 05:24:17;;;;;;;;;;;;;;;19.78;31.14;99294.50;4428525;32;19942;-52
2021/05/09 05:26:43;;;;;;;;;;;;;;;19.80;31.43;99291.81;4417772;32;19950;-49
2021/05/09 05:29:08;;;;;;;;;;;;;;;19.83;31.19;99294.47;4418751;32;19952;-49
2021/05/09 05:31:34;;;;;;;;;;;;;;;19.80;31.24;99291.81;4432958;32;19957;-49
2021/05/09 05:34:02;;;;;;;;;;;;;;;19.83;31.40;99288.31;4432418;32;20013;-48
2021/05/09 05:36:30;;;;;;;;;;;;;;;19.83;31.33;99293.59;4410984;32;20346;-53
2021/05/09 05:38:55;;;;;;;;;;;;;;;19.84;31.02;99304.16;4404446;32;19970;-53
2021/05/09 05:41:21;;;;;;;;;;;;;;;19.84;32.17;99301.53;4402264;32;19973;-51
2021/05/09 05:43:47;;;;;;;;;;;;;;;19.85;31.17;99297.09;4401969;32;19980;-49
2021/05/09 05:46:13;;;;;;;;;;;;;;;19.88;31.18;99297.09;4417370;32;19946;-51
2021/05/09 05:48:39;;;;;;;;;;;;;;;19.87;31.20;99288.28;4419321;32;19950;-50
2021/05/09 05:51:05;;;;;;;;;;;;;;;19.92;31.25;99291.81;4406478;32;19965;-48
2021/05/09 05:53:31;;;;;;;;;;;;;;;19.92;31.34;99294.47;4404073;32;20059;-48
2021/05/09 05:55:57;;;;;;;;;;;;;;;19.90;31.24;99298.84;4415804;32;19984;-50
2021/05/09 05:58:22;;;;;;;;;;;;;;;19.92;31.27;99296.22;4420745;32;20075;-49
2021/05/09 06:00:48;;;;;;;;;;;;;;;19.92;31.37;99302.38;4413302;32;20294;-51
2021/05/09 06:03:14;;;;;;;;;;;;;;;19.91;31.52;99295.31;4416294;32;19999;-49
2021/05/09 06:05:40;;;;;;;;;;;;;;;19.91;31.66;99287.38;4410729;32;20349;-47
2021/05/09 06:08:06;;;;;;;;;;;;;;;19.94;31.36;99274.22;4404198;32;20007;-48
2021/05/09 06:10:32;;;;;;;;;;;;;;;19.92;31.48;99281.25;4410889;32;19954;-49
2021/05/09 06:12:58;;;;;;;;;;;;;;;19.95;31.47;99285.66;4410716;32;20024;-47
2021/05/09 06:15:24;;;;;;;;;;;;;;;19.97;31.82;99273.31;4412678;32;19955;-49
2021/05/09 06:17:50;;;;;;;;;;;;;;;20.01;31.32;99271.53;4411869;32;19950;-48
2021/05/09 06:20:16;;;;;;;;;;;;;;;19.97;31.62;99273.31;4411939;32;19947;-48
2021/05/09 06:22:42;;;;;;;;;;;;;;;19.97;31.41;99275.97;4411606;32;19934;-52
2021/05/09 06:25:08;;;;;;;;;;;;;;;19.97;31.47;99278.59;4412596;32;19982;-50
2021/05/09 06:27:34;;;;;;;;;;;;;;;20.01;31.34;99279.47;4411036;32;19951;-47
2021/05/09 06:29:59;;;;;;;;;;;;;;;20.03;31.33;99277.69;4411918;32;19995;-50
2021/05/09 06:32:25;;;;;;;;;;;;;;;20.01;31.39;99282.13;4411009;32;19954;-52
2021/05/09 06:34:51;;;;;;;;;;;;;;;20.01;31.68;99275.09;4411252;32;19981;-51
2021/05/09 06:37:17;;;;;;;;;;;;;;;20.02;31.55;99275.94;4412375;32;19939;-52
2021/05/09 06:39:43;;;;;;;;;;;;;;;20.03;31.66;99272.41;4411411;32;19946;-53
2021/05/09 06:42:09;;;;;;;;;;;;;;;20.05;32.11;99273.28;4411034;32;20264;-48
2021/05/09 06:44:37;;;;;;;;;;;;;;;20.05;31.61;99274.19;4410322;32;19969;-52
2021/05/09 06:47:05;;;;;;;;;;;;;;;20.06;31.68;99282.97;4404665;32;19949;-51
2021/05/09 06:49:31;;;;;;;;;;;;;;;20.04;31.59;99279.44;4417955;32;20319;-50
2021/05/09 06:51:57;;;;;;;;;;;;;;;20.07;31.59;99279.47;4418711;32;19993;-51
2021/05/09 06:54:23;;;;;;;;;;;;;;;20.10;31.56;99270.63;4416038;32;20059;-49
2021/05/09 06:56:49;;;;;;;;;;;;;;;20.10;31.68;99268.87;4418448;32;19964;-47
2021/05/09 06:59:15;;;;;;;;;;;;;;;20.09;31.87;99267.13;4413036;32;19954;-53
2021/05/09 07:01:41;;;;;;;;;;;;;;;20.11;31.69;99262.69;4417903;32;19981;-54
2021/05/09 07:04:07;;;;;;;;;;;;;;;20.13;31.69;99258.28;4417851;32;19942;-51
2021/05/09 07:06:34;;;;;;;;;;;;;;;20.12;31.77;99261.81;4417837;32;19995;-54
2021/05/09 07:09:00;;;;;;;;;;;;;;;20.16;31.67;99255.63;4417498;32;19954;-53
2021/05/09 07:11:27;;;;;;;;;;;;;;;20.19;31.75;99255.63;4417479;32;19947;-53
2021/05/09 07:13:53;;;;;;;;;;;;;;;20.19;31.83;99252.97;4423229;32;19962;-54
2021/05/09 07:16:20;;;;;;;;;;;;;;;20.19;31.84;99252.09;4419012;32;20007;-48
2021/05/09 07:18:46;;;;;;;;;;;;;;;20.19;31.95;99247.69;4407156;32;19965;-52
2021/05/09 07:21:15;;;;;;;;;;;;;;;20.19;32.26;99246.81;4405325;32;19946;-49
2021/05/09 07:23:47;;;;;;;;;;;;;;;20.20;31.99;99246.81;4417896;32;19954;-50
2021/05/09 07:26:13;;;;;;;;;;;;;;;20.19;32.60;99242.41;4420756;32;19950;-49
2021/05/09 07:28:39;;;;;;;;;;;;;;;20.21;32.63;99243.28;4401546;32;20014;-50
2021/05/09 07:31:05;;;;;;;;;;;;;;;20.22;31.97;99247.66;4404369;32;19951;-53
2021/05/09 07:33:31;;;;;;;;;;;;;;;20.27;31.92;99245.00;4417983;32;19974;-50
2021/05/09 07:35:57;;;;;;;;;;;;;;;20.25;31.97;99248.53;4416731;32;19954;-52
2021/05/09 07:38:23;;;;;;;;;;;;;;;20.28;32.11;99251.16;4417102;32;20087;-48
2021/05/09 07:40:49;;;;;;;;;;;;;;;20.27;32.18;99238.84;4403393;32;19958;-53
2021/05/09 07:43:15;;;;;;;;;;;;;;;20.25;32.23;99244.16;4415475;32;19946;-50
2021/05/09 07:45:41;;;;;;;;;;;;;;;20.26;32.29;99237.06;4423215;32;19996;-51
2021/05/09 07:48:08;;;;;;;;;;;;;;;20.26;32.52;99222.09;4404571;32;19951;-52
2021/05/09 07:50:35;;;;;;;;;;;;;;;20.28;32.39;99222.09;4400960;32;19986;-47
2021/05/09 07:53:01;;;;;;;;;;;;;;;20.33;32.37;99218.53;4414384;32;19994;-48
2021/05/09 07:55:26;;;;;;;;;;;;;;;20.36;32.37;99222.91;4416872;32;20331;-48
2021/05/09 07:57:52;;;;;;;;;;;;;;;20.34;32.37;99225.56;4416337;32;19946;-48
2021/05/09 08:00:19;;;;;;;;;;;;;;;20.35;32.20;99221.16;4416508;32;20327;-47
2021/05/09 08:02:45;;;;;;;;;;;;;;;20.38;32.47;99210.56;4417022;32;19997;-46
2021/05/09 08:05:11;;;;;;;;;;;;;;;20.37;32.36;99214.09;4402580;32;19966;-48
2021/05/09 08:07:37;;;;;;;;;;;;;;;20.39;32.34;99212.31;4410127;32;19991;-50
2021/05/09 08:10:03;;;;;;;;;;;;;;;20.37;32.47;99198.25;4416650;32;19942;-45
2021/05/09 08:12:29;;;;;;;;;;;;;;;20.38;32.48;99207.91;4410026;32;19946;-49
2021/05/09 08:14:55;;;;;;;;;;;;;;;20.39;32.44;99201.75;4400726;32;20438;-50
2021/05/09 08:17:21;;;;;;;;;;;;;;;20.46;32.32;99187.59;4406188;32;19989;-49
2021/05/09 08:19:47;;;;;;;;;;;;;;;20.39;32.76;99201.75;4417803;32;19950;-52
2021/05/09 08:22:13;;;;;;;;;;;;;;;20.46;32.39;99194.66;4418714;32;19965;-52
2021/05/09 08:24:38;;;;;;;;;;;;;;;20.52;32.51;99186.69;4401082;32;19954;-50
2021/05/09 08:27:04;;;;;;;;;;;;;;;20.53;32.38;99187.56;4400345;32;19958;-51
2021/05/09 08:29:30;;;;;;;;;;;;;;;20.54;32.45;99178.72;4416192;32;20343;-47
2021/05/09 08:31:56;;;;;;;;;;;;;;;20.54;32.49;99184.91;4416116;32;19946;-48
2021/05/09 08:34:24;;;;;;;;;;;;;;;20.55;32.46;99188.41;4414430;32;19981;-51
2021/05/09 08:36:49;;;;;;;;;;;;;;;20.54;32.64;99181.38;4416224;32;19959;-48
2021/05/09 08:39:15;;;;;;;;;;;;;;;20.53;32.53;99183.16;4401580;32;20271;-49
2021/05/09 08:41:42;;;;;;;;;;;;;;;20.57;32.51;99184.00;4401368;32;19988;-47
2021/05/09 08:44:08;;;;;;;;;;;;;;;20.59;32.46;99182.22;4414804;32;19947;-48
2021/05/09 08:46:34;;;;;;;;;;;;;;;20.60;32.39;99184.84;4422827;32;20842;-47
2021/05/09 08:48:59;;;;;;;;;;;;;;;20.60;32.49;99178.69;4408164;32;19954;-49
2021/05/09 08:51:25;;;;;;;;;;;;;;;20.55;32.61;99181.38;4411326;32;19943;-51
2021/05/09 08:53:51;;;;;;;;;;;;;;;20.60;32.48;99173.41;4416716;32;19946;-49
2021/05/09 08:56:17;;;;;;;;;;;;;;;20.67;32.47;99175.09;4415036;32;20343;-47
2021/05/09 08:58:43;;;;;;;;;;;;;;;20.68;32.42;99182.16;4414683;32;19964;-51
2021/05/09 09:01:09;;;;;;;;;;;;;;;20.69;32.42;99173.34;4421699;32;20006;-52
2021/05/09 09:03:35;;;;;;;;;;;;;;;20.71;32.45;99166.25;4413343;32;19950;-51
2021/05/09 09:06:05;;;;;;;;;;;;;;;20.72;32.40;99159.19;4409780;32;19993;-50
2021/05/09 09:08:31;;;;;;;;;;;;;;;20.76;32.33;99163.59;4417012;32;19999;-53
2021/05/09 09:10:57;;;;;;;;;;;;;;;20.75;32.37;99156.53;4414566;32;20366;-61
2021/05/09 09:13:23;;;;;;;;;;;;;;;20.74;32.66;99149.47;4415955;32;20086;-51
2021/05/09 09:15:49;;;;;;;;;;;;;;;20.66;34.60;99146.87;4416425;32;19950;-49
2021/05/09 09:18:14;;;;;;;;;;;;;;;20.75;33.93;99140.66;4410451;32;20345;-53
2021/05/09 09:20:40;;;;;;;;;;;;;;;20.75;33.78;99140.66;4402149;32;20027;-49
2021/05/09 09:23:09;;;;;;;;;;;;;;;20.76;33.61;99140.63;4405581;32;19946;-51
2021/05/09 09:25:36;;;;;;;;;;;;;;;20.76;33.36;99142.41;4419493;32;20012;-50
2021/05/09 09:28:01;;;;;;;;;;;;;;;20.79;33.29;99135.31;4423417;32;20005;-51
2021/05/09 09:30:27;;;;;;;;;;;;;;;20.78;33.53;99128.25;4402852;32;20279;-53
2021/05/09 09:32:53;;;;;;;;;;;;;;;20.75;33.55;99123.00;4404702;32;19943;-51
2021/05/09 09:35:19;;;;;;;;;;;;;;;20.80;33.41;99117.69;4419472;32;20026;-52
2021/05/09 09:37:45;;;;;;;;;;;;;;;20.85;33.35;99120.31;4419376;32;20356;-51
2021/05/09 09:40:11;;;;;;;;;;;;;;;20.85;33.32;99121.19;4431095;32;19980;-53
2021/05/09 09:42:37;;;;;;;;;;;;;;;20.86;33.33;99111.47;4434167;32;19957;-50
2021/05/09 09:45:03;;;;;;;;;;;;;;;20.87;33.10;99110.59;4420584;32;19970;-50
2021/05/09 09:47:28;;;;;;;;;;;;;;;20.89;33.06;99111.44;4424107;32;20331;-50
2021/05/09 09:49:54;;;;;;;;;;;;;;;20.91;33.14;99104.38;4406059;32;19954;-52
2021/05/09 09:52:20;;;;;;;;;;;;;;;20.94;33.01;99093.78;4403072;32;20027;-52
2021/05/09 09:54:46;;;;;;;;;;;;;;;20.92;33.01;99084.94;4414240;32;20293;-53
2021/05/09 09:57:12;;;;;;;;;;;;;;;20.93;33.06;99092.03;4418636;32;19966;-50
2021/05/09 09:59:38;;;;;;;;;;;;;;;20.94;33.10;99099.06;4417227;32;19957;-53
2021/05/09 10:02:04;;;;;;;;;;;;;;;20.97;32.92;99096.38;4417841;32;19957;-52
2021/05/09 10:04:30;;;;;;;;;;;;;;;20.97;32.84;99091.09;4417618;32;20359;-51
2021/05/09 10:06:56;;;;;;;;;;;;;;;20.99;32.99;99097.22;4418777;32;19977;-52
2021/05/09 10:09:22;;;;;;;;;;;;;;;20.98;32.88;99087.53;4418273;32;19961;-53
2021/05/09 10:11:48;;;;;;;;;;;;;;;21.00;32.87;99088.41;4418838;32;20050;-51
2021/05/09 10:14:14;;;;;;;;;;;;;;;21.00;32.93;99085.75;4414254;32;19970;-50
2021/05/09 10:16:40;;;;;;;;;;;;;;;21.01;33.03;99079.56;4405181;32;19963;-51
2021/05/09 10:19:06;;;;;;;;;;;;;;;21.01;33.03;99068.97;4405772;32;19938;-51
2021/05/09 10:21:32;;;;;;;;;;;;;;;21.01;33.01;99073.41;4419016;32;19958;-52
2021/05/09 10:23:58;;;;;;;;;;;;;;;21.02;33.14;99054.84;4421876;32;20011;-52
2021/05/09 10:26:23;;;;;;;;;;;;;;;21.02;33.09;99059.28;4402987;32;19995;-50
2021/05/09 10:28:49;;;;;;;;;;;;;;;20.99;33.10;99049.59;4402186;32;19938;-53
2021/05/09 10:31:15;;;;;;;;;;;;;;;20.97;33.12;99050.50;4417531;32;19953;-50
2021/05/09 10:33:41;;;;;;;;;;;;;;;20.97;33.19;99046.09;4418918;32;19986;-49
2021/05/09 10:36:07;;;;;;;;;;;;;;;20.95;33.23;99042.59;4416694;32;19954;-48
2021/05/09 10:38:33;;;;;;;;;;;;;;;21.01;33.19;99047.81;4417536;32;20007;-50
2021/05/09 10:40:59;;;;;;;;;;;;;;;21.00;33.21;99037.25;4404677;32;19969;-48
2021/05/09 10:43:25;;;;;;;;;;;;;;;20.98;33.32;99029.31;4401685;32;19969;-52
2021/05/09 10:45:51;;;;;;;;;;;;;;;21.00;33.30;99030.16;4415700;32;19954;-52
2021/05/09 10:48:25;;;;;;;;;;;;;;;21.00;33.29;99016.94;4417205;32;20290;-50
2021/05/09 10:50:51;;;;;;;;;;;;;;;21.00;33.18;99011.66;4406532;32;20022;-51
2021/05/09 10:53:17;;;;;;;;;;;;;;;21.02;33.23;99017.78;4404380;32;20320;-49
2021/05/09 10:55:43;;;;;;;;;;;;;;;21.03;33.28;99016.91;4414386;32;19935;-52
2021/05/09 10:58:09;;;;;;;;;;;;;;;21.03;33.43;99008.97;4418218;32;19968;-50
2021/05/09 11:00:34;;;;;;;;;;;;;;;21.04;33.44;99000.13;4408282;32;20335;-53
2021/05/09 11:03:00;;;;;;;;;;;;;;;21.04;33.42;99005.41;4403681;32;19970;-52
2021/05/09 11:05:26;;;;;;;;;;;;;;;21.02;33.51;99001.91;4408603;32;19964;-51
2021/05/09 11:07:52;;;;;;;;;;;;;;;21.06;33.43;99005.41;4417104;32;19998;-53
2021/05/09 11:10:18;;;;;;;;;;;;;;;21.08;33.33;98993.03;4419847;32;20442;-52
2021/05/09 11:12:44;;;;;;;;;;;;;;;21.16;33.35;98992.91;4416588;32;19958;-59
2021/05/09 11:15:10;;;;;;;;;;;;;;;20.98;36.99;98983.44;4402632;32;19972;-59
2021/05/09 11:17:36;;;;;;;;;;;;;;;20.98;39.80;98979.03;4409923;32;20293;-52
2021/05/09 11:20:02;;;;;;;;;;;;;;;21.30;37.60;98969.81;4408520;32;19969;-50
2021/05/09 11:22:27;;;;;;;;;;;;;;;21.73;35.54;98956.84;4415204;32;20502;-54
2021/05/09 11:24:53;;;;;;;;;;;;;;;21.79;35.41;98946.12;4416194;32;20009;-52
2021/05/09 11:27:20;;;;;;;;;;;;;;;21.77;35.28;98961.19;4416309;32;19958;-52
2021/05/09 11:29:46;;;;;;;;;;;;;;;21.71;35.32;98961.31;4417426;32;19962;-53
2021/05/09 11:32:12;;;;;;;;;;;;;;;21.63;35.43;98967.53;4416722;32;19952;-54
2021/05/09 11:34:37;;;;;;;;;;;;;;;21.60;35.26;98966.72;4415983;32;20389;-50
2021/05/09 11:37:03;;;;;;;;;;;;;;;21.54;35.55;98965.03;4416355;32;19953;-53
2021/05/09 11:39:29;;;;;;;;;;;;;;;21.53;35.60;98959.78;4414332;32;19981;-53
2021/05/09 11:41:55;;;;;;;;;;;;;;;21.50;35.56;98944.78;4417066;32;20012;-52
2021/05/09 11:44:21;;;;;;;;;;;;;;;21.47;35.47;98944.84;4415122;32;20433;-51
2021/05/09 11:46:47;;;;;;;;;;;;;;;21.47;35.57;98942.19;4415429;32;19950;-51
2021/05/09 11:49:13;;;;;;;;;;;;;;;21.46;35.46;98933.37;4415186;32;19955;-51
2021/05/09 11:51:39;;;;;;;;;;;;;;;21.45;35.44;98933.41;4415507;32;20400;-51
2021/05/09 11:54:05;;;;;;;;;;;;;;;21.45;35.48;98938.69;4414873;32;19965;-51
2021/05/09 11:56:32;;;;;;;;;;;;;;;21.44;35.33;98939.59;4416009;32;19954;-54
2021/05/09 11:58:59;;;;;;;;;;;;;;;21.52;35.26;98932.41;4414459;32;20002;-53
2021/05/09 12:01:25;;;;;;;;;;;;;;;21.49;35.39;98921.84;4416498;32;20000;-52
2021/05/09 12:03:51;;;;;;;;;;;;;;;21.49;35.23;98927.16;4416320;32;20074;-53
2021/05/09 12:06:17;;;;;;;;;;;;;;;21.60;34.95;98925.22;4415651;32;19958;-52
2021/05/09 12:08:43;;;;;;;;;;;;;;;21.68;34.79;98924.28;4414305;32;20386;-54
2021/05/09 12:11:09;;;;;;;;;;;;;;;21.71;34.87;98919.78;4410243;32;19950;-50
2021/05/09 12:13:35;;;;;;;;;;;;;;;21.69;34.80;98923.38;4411129;32;19978;-50
2021/05/09 12:16:01;;;;;;;;;;;;;;;21.75;34.76;98918.84;4414947;32;19954;-52
2021/05/09 12:18:27;;;;;;;;;;;;;;;21.78;34.63;98923.19;4415595;32;20066;-52
2021/05/09 12:20:53;;;;;;;;;;;;;;;21.82;34.58;98924.91;4415672;32;19987;-49
2021/05/09 12:23:19;;;;;;;;;;;;;;;21.81;34.55;98912.56;4415229;32;20274;-52
2021/05/09 12:25:44;;;;;;;;;;;;;;;21.84;34.56;98915.16;4415117;32;19958;-51
2021/05/09 12:28:11;;;;;;;;;;;;;;;21.72;34.76;98918.00;4414781;32;20023;-52
2021/05/09 12:30:37;;;;;;;;;;;;;;;21.76;35.95;98914.41;4416516;32;20383;-53
2021/05/09 12:33:02;;;;;;;;;;;;;;;21.80;35.33;98916.13;4400908;32;19947;-49
2021/05/09 12:35:28;;;;;;;;;;;;;;;21.86;35.35;98908.03;4409900;32;20000;-52
2021/05/09 12:37:54;;;;;;;;;;;;;;;21.93;35.41;98915.91;4415999;32;19953;-53
2021/05/09 12:40:20;;;;;;;;;;;;;;;21.98;35.21;98914.94;4414975;32;19988;-49